createdAt,value
2022-10-19T00:00:46.423Z,44.75
2022-10-19T00:03:23.244Z,42.80
2022-10-19T00:06:41.774Z,42.55
2022-10-19T00:09:26.155Z,44.85
2022-10-19T00:12:10.339Z,42.55
2022-10-19T00:14:42.011Z,39.92
2022-10-19T00:17:12.217Z,43.72
2022-10-19T00:19:46.364Z,42.45
2022-10-19T00:22:16.281Z,47.50
2022-10-19T00:25:06.937Z,46.45
2022-10-19T00:27:34.498Z,46.60
2022-10-19T00:30:07.044Z,43.30
2022-10-19T00:32:46.969Z,41.28
2022-10-19T00:35:16.742Z,41.72
2022-10-19T00:37:54.297Z,48.45
2022-10-19T00:40:42.096Z,48.75
2022-10-19T00:43:33.046Z,45.25
2022-10-19T00:46:03.966Z,47.08
2022-10-19T00:48:34.092Z,44.83
2022-10-19T00:51:09.638Z,48.35
2022-10-19T00:53:41.809Z,46.20
2022-10-19T00:56:19.699Z,49.10
2022-10-19T00:58:53.074Z,46.80
2022-10-19T01:01:33.020Z,50.55
2022-10-19T01:04:05.868Z,52.38
2022-10-19T01:06:37.075Z,51.42
2022-10-19T01:09:06.340Z,55.28
2022-10-19T01:11:59.137Z,55.20
2022-10-19T01:15:02.549Z,56.92
2022-10-19T01:17:57.551Z,55.25
2022-10-19T01:20:28.889Z,58.08
2022-10-19T01:23:18.715Z,52.58
2022-10-19T01:26:21.674Z,61.30
2022-10-19T01:28:55.049Z,70.88
2022-10-19T01:31:38.915Z,67.68
2022-10-19T01:34:52.793Z,66.28
2022-10-19T01:37:41.445Z,81.43
2022-10-19T01:40:09.182Z,67.22
2022-10-19T01:42:56.942Z,74.03
2022-10-19T01:45:53.504Z,76.47
2022-10-19T01:48:35.725Z,78.25
2022-10-19T01:51:14.212Z,81.00
2022-10-19T01:53:48.713Z,74.75
2022-10-19T01:56:19.640Z,79.10
2022-10-19T01:58:49.495Z,83.90
2022-10-19T02:01:22.266Z,81.38
2022-10-19T02:03:55.699Z,78.53
2022-10-19T02:06:26.579Z,79.68
2022-10-19T02:09:01.136Z,84.10
2022-10-19T02:11:31.212Z,84.15
2022-10-19T02:14:12.733Z,85.03
2022-10-19T02:16:49.774Z,87.32
2022-10-19T02:19:20.847Z,83.78
2022-10-19T02:21:48.483Z,83.78
2022-10-19T02:24:16.316Z,82.68
2022-10-19T02:26:44.912Z,86.45
2022-10-19T02:29:15.481Z,83.82
2022-10-19T02:31:56.575Z,83.95
2022-10-19T02:34:26.971Z,82.47
2022-10-19T02:36:58.717Z,82.22
2022-10-19T02:39:30.830Z,85.07
2022-10-19T02:42:10.425Z,86.43
2022-10-19T02:44:43.241Z,83.80
2022-10-19T02:47:31.168Z,83.05
2022-10-19T02:49:58.701Z,86.50
2022-10-19T02:52:35.155Z,87.15
2022-10-19T02:55:03.623Z,90.43
2022-10-19T02:57:33.680Z,85.88
2022-10-19T03:00:21.534Z,91.07
2022-10-19T03:02:56.931Z,85.70
2022-10-19T03:05:27.533Z,86.10
2022-10-19T03:07:55.956Z,80.60
2022-10-19T03:10:30.200Z,89.28
2022-10-19T03:13:00.126Z,85.38
2022-10-19T03:15:31.840Z,88.45
2022-10-19T03:18:01.717Z,85.85
2022-10-19T03:20:29.650Z,86.20
2022-10-19T03:22:57.916Z,84.05
2022-10-19T03:25:27.755Z,82.40
2022-10-19T03:27:55.946Z,87.22
2022-10-19T03:30:30.369Z,85.57
2022-10-19T03:33:01.047Z,88.40
2022-10-19T03:35:32.130Z,85.97
2022-10-19T03:38:04.114Z,85.50
2022-10-19T03:40:40.403Z,84.95
2022-10-19T03:43:18.418Z,81.38
2022-10-19T03:45:53.661Z,83.63
2022-10-19T03:51:20.679Z,84.45
2022-10-19T03:54:27.403Z,84.70
2022-10-19T03:57:32.280Z,89.90
2022-10-19T04:03:10.341Z,82.10
2022-10-19T04:05:56.453Z,86.50
2022-10-19T04:08:34.938Z,81.53
2022-10-19T04:11:10.322Z,80.75
2022-10-19T04:13:45.961Z,90.85
2022-10-19T04:16:21.530Z,86.88
2022-10-19T04:18:58.160Z,88.78
2022-10-19T04:21:40.878Z,82.32
2022-10-19T04:24:20.250Z,80.85
2022-10-19T04:26:57.197Z,89.88
2022-10-19T04:29:32.049Z,86.50
2022-10-19T04:32:09.518Z,84.07
2022-10-19T04:34:42.924Z,79.70
2022-10-19T04:37:41.237Z,90.50
2022-10-19T04:40:19.789Z,82.43
2022-10-19T04:42:50.430Z,87.32
2022-10-19T04:45:20.917Z,85.93
2022-10-19T04:48:04.551Z,83.90
2022-10-19T04:50:45.837Z,84.65
2022-10-19T04:55:54.908Z,83.28
2022-10-19T04:58:27.958Z,90.10
2022-10-19T05:01:15.014Z,86.07
2022-10-19T05:03:46.208Z,87.30
2022-10-19T05:06:20.954Z,85.57
2022-10-19T05:08:57.555Z,85.30
2022-10-19T05:11:29.739Z,94.28
2022-10-19T05:13:59.582Z,84.50
2022-10-19T05:16:33.840Z,82.05
2022-10-19T05:19:07.344Z,79.38
2022-10-19T05:21:39.791Z,88.30
2022-10-19T05:24:12.991Z,90.13
2022-10-19T05:26:45.945Z,85.40
2022-10-19T05:29:15.859Z,85.70
2022-10-19T05:31:57.468Z,84.70
2022-10-19T05:34:28.804Z,81.35
2022-10-19T05:36:56.855Z,85.85
2022-10-19T05:39:42.257Z,80.57
2022-10-19T05:42:17.434Z,75.80
2022-10-19T05:44:47.307Z,74.78
2022-10-19T05:47:54.477Z,78.00
2022-10-19T05:50:28.007Z,72.93
2022-10-19T05:52:56.505Z,70.90
2022-10-19T05:55:40.490Z,75.70
2022-10-19T05:58:07.656Z,73.38
2022-10-19T06:00:55.320Z,70.85
2022-10-19T06:03:24.272Z,67.32
2022-10-19T06:05:52.593Z,66.35
2022-10-19T06:08:21.664Z,74.47
2022-10-19T06:10:49.488Z,77.75
2022-10-19T06:29:09.684Z,83.35
2022-10-19T06:32:24.946Z,88.53
2022-10-19T06:35:05.110Z,84.63
2022-10-19T06:41:19.044Z,81.95
2022-10-19T06:50:11.860Z,82.75
2022-10-19T06:55:55.390Z,79.50
2022-10-19T07:04:26.320Z,77.22
2022-10-19T07:07:23.470Z,83.85
2022-10-19T07:10:19.273Z,88.35
2022-10-19T07:13:11.885Z,78.63
2022-10-19T08:05:02.032Z,88.88
2022-10-19T08:07:33.943Z,84.63
2022-10-19T08:10:59.153Z,79.22
2022-10-19T08:13:45.775Z,77.93
2022-10-19T08:23:32.980Z,77.47
2022-10-19T08:26:42.063Z,82.00
2022-10-19T08:32:17.721Z,74.28
2022-10-19T08:38:34.748Z,79.45
2022-10-19T08:42:01.849Z,77.53
2022-10-19T08:44:45.781Z,85.35
2022-10-19T08:47:55.464Z,82.20
2022-10-19T08:50:32.099Z,77.63
2022-10-19T08:56:52.496Z,80.78
2022-10-19T09:01:06.204Z,73.35
2022-10-19T09:03:56.110Z,82.10
2022-10-19T09:07:17.156Z,88.68
2022-10-19T09:13:22.038Z,81.28
2022-10-19T09:16:07.625Z,80.03
2022-10-19T09:18:42.593Z,78.95
2022-10-19T09:21:33.348Z,78.60
2022-10-19T09:25:17.181Z,80.57
2022-10-19T09:28:56.587Z,80.93
2022-10-19T09:33:49.723Z,80.15
2022-10-19T09:36:22.970Z,81.95
2022-10-19T09:42:16.808Z,85.03
2022-10-19T09:44:46.348Z,76.05
2022-10-19T09:47:23.705Z,79.80
2022-10-19T09:49:51.223Z,76.32
2022-10-19T09:52:39.721Z,82.05
2022-10-19T09:55:45.972Z,79.22
2022-10-19T09:58:20.924Z,79.55
2022-10-19T10:00:51.468Z,80.18
2022-10-19T10:03:27.721Z,80.93
2022-10-19T10:44:52.543Z,78.40
2022-10-19T10:53:59.450Z,84.63
2022-10-19T10:56:33.525Z,85.60
2022-10-19T11:13:56.309Z,82.30
2022-10-19T11:30:24.479Z,86.25
2022-10-19T11:32:59.177Z,86.03
2022-10-19T11:39:43.395Z,85.47
2022-10-19T11:46:37.457Z,83.18
2022-10-19T11:53:42.217Z,91.43
2022-10-19T11:57:05.666Z,85.70
2022-10-19T12:11:48.708Z,85.72
2022-10-19T12:14:25.930Z,80.20
2022-10-19T12:17:11.224Z,77.30
2022-10-19T12:23:39.765Z,79.07
2022-10-19T12:33:16.116Z,80.95
2022-10-19T12:35:59.661Z,80.55
2022-10-19T12:42:42.574Z,79.72
2022-10-19T12:46:14.509Z,81.40
2022-10-19T12:48:41.843Z,81.85
2022-10-19T12:51:16.875Z,75.47
2022-10-19T12:57:13.006Z,77.07
2022-10-19T12:59:41.629Z,84.25
2022-10-19T13:09:00.746Z,79.38
2022-10-19T13:11:38.819Z,80.35
2022-10-19T14:37:27.380Z,64.68
2022-10-19T14:40:26.616Z,62.63
2022-10-19T14:42:55.869Z,61.88
2022-10-19T14:45:33.213Z,60.58
2022-10-19T14:48:00.232Z,65.72
2022-10-19T14:50:51.590Z,60.97
2022-10-19T14:53:39.532Z,67.85
2022-10-19T14:56:26.234Z,65.88
2022-10-19T14:59:00.828Z,76.82
2022-10-19T15:01:28.134Z,63.05
2022-10-19T15:03:55.665Z,64.10
2022-10-19T15:06:27.061Z,65.68
2022-10-19T15:11:39.611Z,68.35
2022-10-19T15:14:22.859Z,65.32
2022-10-19T15:16:54.067Z,61.13
2022-10-19T15:19:36.398Z,63.45
2022-10-19T15:22:32.498Z,57.05
2022-10-19T15:25:24.773Z,60.42
2022-10-19T15:27:53.728Z,58.78
2022-10-19T15:30:23.719Z,63.15
2022-10-19T15:32:56.321Z,63.60
2022-10-19T15:35:38.359Z,60.80
2022-10-19T15:38:18.592Z,56.47
2022-10-19T15:40:46.900Z,55.17
2022-10-19T15:43:34.858Z,61.30
2022-10-19T15:46:03.497Z,61.67
2022-10-19T15:48:55.238Z,57.15
2022-10-19T15:51:28.741Z,61.03
2022-10-19T15:54:00.899Z,62.60
2022-10-19T15:56:30.121Z,60.80
2022-10-19T15:58:59.910Z,66.28
2022-10-19T16:01:28.963Z,61.70
2022-10-19T16:03:56.300Z,66.70
2022-10-19T16:06:26.096Z,68.07
2022-10-19T16:08:54.257Z,68.10
2022-10-19T16:11:25.552Z,65.20
2022-10-19T16:13:52.753Z,75.00
2022-10-19T16:16:24.215Z,72.45
2022-10-19T16:18:52.467Z,68.57
2022-10-19T16:21:21.636Z,62.55
2022-10-19T16:23:49.089Z,60.63
2022-10-19T16:26:18.356Z,63.28
2022-10-19T16:28:45.582Z,58.05
2022-10-19T16:31:12.661Z,60.92
2022-10-19T16:33:39.692Z,64.57
2022-10-19T16:36:07.991Z,65.60
2022-10-19T16:38:36.041Z,60.05
2022-10-19T16:41:05.237Z,62.08
2022-10-19T16:43:32.304Z,63.47
2022-10-19T16:45:59.390Z,61.05
2022-10-19T16:48:26.670Z,64.93
2022-10-19T16:51:27.729Z,60.85
2022-10-19T16:53:57.816Z,57.45
2022-10-19T16:56:27.302Z,60.50
2022-10-19T16:58:56.396Z,60.35
2022-10-19T17:01:24.140Z,62.42
2022-10-19T17:03:51.404Z,54.50
2022-10-19T17:06:19.127Z,58.72
2022-10-19T17:09:30.171Z,99.03
2022-10-19T17:11:37.605Z,71.40
2022-10-19T17:14:11.052Z,62.65
2022-10-19T17:16:39.402Z,57.38
2022-10-19T17:19:13.736Z,55.03
2022-10-19T17:21:42.546Z,52.17
2022-10-19T17:24:20.249Z,50.95
2022-10-19T17:26:52.337Z,51.55
2022-10-19T17:29:20.801Z,48.77
2022-10-19T17:31:48.516Z,50.92
2022-10-19T17:34:16.109Z,49.60
2022-10-19T17:36:44.913Z,49.80
2022-10-19T17:39:17.586Z,54.78
2022-10-19T17:41:49.803Z,50.58
2022-10-19T17:44:18.709Z,50.88
2022-10-19T17:46:46.627Z,42.95
2022-10-19T17:49:14.846Z,45.45
2022-10-19T17:51:42.299Z,46.47
2022-10-19T17:54:13.141Z,39.85
2022-10-19T17:56:41.209Z,40.00
2022-10-19T17:59:10.001Z,43.58
2022-10-19T18:01:37.689Z,38.38
2022-10-19T18:04:07.183Z,42.05
2022-10-19T18:06:38.140Z,33.42
2022-10-19T18:09:09.449Z,38.78
2022-10-19T18:11:40.410Z,37.38
2022-10-19T18:14:10.306Z,40.47
2022-10-19T18:16:47.304Z,34.67
2022-10-19T18:19:17.666Z,38.85
2022-10-19T18:21:46.741Z,33.42
2022-10-19T18:24:19.452Z,34.42
2022-10-19T18:26:51.291Z,32.78
2022-10-19T18:31:53.341Z,29.23
2022-10-19T18:34:26.171Z,26.15
2022-10-19T18:36:54.517Z,24.25
2022-10-19T18:39:22.454Z,24.30
2022-10-19T18:41:54.679Z,24.17
2022-10-19T18:44:26.983Z,22.52
2022-10-19T18:46:57.009Z,21.13
2022-10-19T18:49:24.469Z,21.90
2022-10-19T18:51:55.116Z,21.90
2022-10-19T18:54:28.004Z,17.55
2022-10-19T18:56:55.755Z,23.60
2022-10-19T18:59:32.313Z,18.35
2022-10-19T19:02:13.580Z,20.92
2022-10-19T19:04:49.669Z,20.67
2022-10-19T19:07:16.698Z,16.40
2022-10-19T19:09:43.870Z,15.68
2022-10-19T19:12:10.838Z,16.00
2022-10-19T19:14:38.459Z,16.45
2022-10-19T19:17:05.392Z,17.52
2022-10-19T19:19:32.326Z,18.95
2022-10-19T19:22:05.118Z,20.25
2022-10-19T19:24:35.539Z,19.00
2022-10-19T19:27:02.434Z,20.17
2022-10-19T19:29:30.683Z,23.13
2022-10-19T19:31:57.696Z,18.00
2022-10-19T19:34:24.723Z,14.82
2022-10-19T19:36:51.719Z,16.58
2022-10-19T19:39:20.956Z,19.15
2022-10-19T19:41:49.104Z,16.65
2022-10-19T19:44:17.166Z,13.48
2022-10-19T19:46:44.059Z,12.95
2022-10-19T19:49:11.533Z,16.58
2022-10-19T19:51:38.549Z,15.40
2022-10-19T19:54:05.803Z,12.73
2022-10-19T19:56:33.288Z,21.33
2022-10-19T19:59:03.825Z,19.80
2022-10-19T20:01:31.758Z,15.27
2022-10-19T20:04:00.148Z,14.10
2022-10-19T20:06:27.198Z,17.35
2022-10-19T20:08:56.437Z,15.90
2022-10-19T20:11:25.388Z,16.25
2022-10-19T20:13:52.860Z,13.32
2022-10-19T20:16:26.569Z,17.05
2022-10-19T20:19:05.356Z,16.35
2022-10-19T20:21:33.660Z,15.05
2022-10-19T20:24:01.344Z,12.07
2022-10-19T20:26:28.952Z,14.63
2022-10-19T20:28:56.854Z,15.23
2022-10-19T20:31:24.439Z,15.48
2022-10-19T20:33:51.463Z,14.40
2022-10-19T20:36:22.211Z,12.63
2022-10-19T20:38:57.611Z,12.95
2022-10-19T20:41:27.280Z,13.48
2022-10-19T20:43:54.668Z,13.25
2022-10-19T20:46:27.773Z,13.82
2022-10-19T20:48:56.695Z,12.80
2022-10-19T20:51:30.724Z,13.68
2022-10-19T20:54:01.035Z,13.48
2022-10-19T20:56:29.914Z,18.92
2022-10-19T20:58:59.068Z,18.65
2022-10-19T21:01:27.339Z,19.33
2022-10-19T21:03:56.735Z,16.90
2022-10-19T21:06:26.433Z,15.93
2022-10-19T21:08:54.010Z,19.42
2022-10-19T21:11:26.866Z,18.58
2022-10-19T21:13:59.308Z,19.15
2022-10-19T21:16:28.372Z,19.95
2022-10-19T21:30:31.892Z,21.58
